sensor_id;sensor_type;location;lat;lon;timestamp;pressure;altitude;pressure_sealevel;temperature;humidity
71774;BME280;59607;52.130;5.430;2023-03-23T00:01:28;100292.53;;;11.26;100.00
71774;BME280;59607;52.130;5.430;2023-03-23T00:03:59;100285.28;;;11.28;100.00
71774;BME280;59607;52.130;5.430;2023-03-23T00:06:26;100283.47;;;11.28;100.00
71774;BME280;59607;52.130;5.430;2023-03-23T00:08:55;100266.28;;;11.26;100.00
71774;BME280;59607;52.130;5.430;2023-03-23T00:11:29;100255.78;;;11.26;100.00
71774;BME280;59607;52.130;5.430;2023-03-23T00:13:57;100247.09;;;11.25;100.00
71774;BME280;59607;52.130;5.430;2023-03-23T00:16:27;100242.81;;;11.24;100.00
71774;BME280;59607;52.130;5.430;2023-03-23T00:19:05;100253.31;;;11.24;100.00
71774;BME280;59607;52.130;5.430;2023-03-23T00:21:45;100257.78;;;11.23;100.00
71774;BME280;59607;52.130;5.430;2023-03-23T00:24:16;100258.56;;;11.24;100.00
71774;BME280;59607;52.130;5.430;2023-03-23T00:26:48;100260.88;;;11.27;100.00
71774;BME280;59607;52.130;5.430;2023-03-23T00:29:22;100256.22;;;11.29;100.00
71774;BME280;59607;52.130;5.430;2023-03-23T00:31:51;100250.19;;;11.29;100.00
71774;BME280;59607;52.130;5.430;2023-03-23T00:34:23;100244.56;;;11.32;100.00
71774;BME280;59607;52.130;5.430;2023-03-23T00:36:54;100251.44;;;11.33;100.00
71774;BME280;59607;52.130;5.430;2023-03-23T00:39:24;100247.63;;;11.35;100.00
71774;BME280;59607;52.130;5.430;2023-03-23T00:41:52;100249.25;;;11.37;100.00
71774;BME280;59607;52.130;5.430;2023-03-23T00:44:27;100237.75;;;11.38;100.00
71774;BME280;59607;52.130;5.430;2023-03-23T00:46:54;100237.75;;;11.38;100.00
71774;BME280;59607;52.130;5.430;2023-03-23T00:49:25;100236.94;;;11.37;100.00
71774;BME280;59607;52.130;5.430;2023-03-23T00:51:52;100229.69;;;11.39;100.00
71774;BME280;59607;52.130;5.430;2023-03-23T00:54:19;100231.34;;;11.40;100.00
71774;BME280;59607;52.130;5.430;2023-03-23T00:56:49;100223.63;;;11.39;100.00
71774;BME280;59607;52.130;5.430;2023-03-23T00:59:15;100221.00;;;11.39;100.00
71774;BME280;59607;52.130;5.430;2023-03-23T01:01:41;100213.31;;;11.37;100.00
71774;BME280;59607;52.130;5.430;2023-03-23T01:04:07;100209.69;;;11.38;100.00
71774;BME280;59607;52.130;5.430;2023-03-23T01:06:36;100215.75;;;11.39;100.00
71774;BME280;59607;52.130;5.430;2023-03-23T01:09:26;100206.88;;;11.40;100.00
71774;BME280;59607;52.130;5.430;2023-03-23T01:11:56;100211.78;;;11.43;100.00
71774;BME280;59607;52.130;5.430;2023-03-23T01:14:22;100203.72;;;11.44;100.00
71774;BME280;59607;52.130;5.430;2023-03-23T01:16:50;100207.16;;;11.45;100.00
71774;BME280;59607;52.130;5.430;2023-03-23T01:19:16;100198.25;;;11.46;100.00
71774;BME280;59607;52.130;5.430;2023-03-23T01:21:41;100209.59;;;11.46;100.00
71774;BME280;59607;52.130;5.430;2023-03-23T01:24:07;100216.47;;;11.47;100.00
71774;BME280;59607;52.130;5.430;2023-03-23T01:26:34;100200.34;;;11.51;100.00
71774;BME280;59607;52.130;5.430;2023-03-23T01:29:02;100182.97;;;11.50;100.00
71774;BME280;59607;52.130;5.430;2023-03-23T01:31:31;100170.63;;;11.50;100.00
71774;BME280;59607;52.130;5.430;2023-03-23T01:33:59;100201.94;;;11.52;100.00
71774;BME280;59607;52.130;5.430;2023-03-23T01:36:27;100183.56;;;11.52;100.00
71774;BME280;59607;52.130;5.430;2023-03-23T01:38:59;100175.34;;;11.55;100.00
71774;BME280;59607;52.130;5.430;2023-03-23T01:41:27;100184.03;;;11.55;100.00
71774;BME280;59607;52.130;5.430;2023-03-23T01:46:36;100168.06;;;11.57;100.00
71774;BME280;59607;52.130;5.430;2023-03-23T01:49:06;100171.72;;;11.56;100.00
71774;BME280;59607;52.130;5.430;2023-03-23T01:51:40;100170.25;;;11.53;100.00
71774;BME280;59607;52.130;5.430;2023-03-23T01:54:11;100169.28;;;11.54;100.00
71774;BME280;59607;52.130;5.430;2023-03-23T01:56:47;100169.28;;;11.54;100.00
71774;BME280;59607;52.130;5.430;2023-03-23T01:59:14;100167.28;;;11.56;100.00
71774;BME280;59607;52.130;5.430;2023-03-23T02:01:44;100162.81;;;11.57;100.00
71774;BME280;59607;52.130;5.430;2023-03-23T02:04:31;100165.06;;;11.60;100.00
71774;BME280;59607;52.130;5.430;2023-03-23T02:06:59;100152.13;;;11.58;100.00
71774;BME280;59607;52.130;5.430;2023-03-23T02:09:28;100165.63;;;11.55;100.00
71774;BME280;59607;52.130;5.430;2023-03-23T02:11:54;100160.56;;;11.54;100.00
71774;BME280;59607;52.130;5.430;2023-03-23T02:14:21;100157.13;;;11.53;100.00
71774;BME280;59607;52.130;5.430;2023-03-23T02:17:09;100161.41;;;11.54;100.00
71774;BME280;59607;52.130;5.430;2023-03-23T02:22:49;100154.16;;;11.56;100.00
71774;BME280;59607;52.130;5.430;2023-03-23T02:33:38;100157.56;;;11.57;100.00
71774;BME280;59607;52.130;5.430;2023-03-23T02:41:47;100150.13;;;11.60;100.00
71774;BME280;59607;52.130;5.430;2023-03-23T02:44:16;100149.31;;;11.60;100.00
71774;BME280;59607;52.130;5.430;2023-03-23T02:46:43;100147.31;;;11.62;100.00
71774;BME280;59607;52.130;5.430;2023-03-23T02:49:12;100153.03;;;11.66;100.00
71774;BME280;59607;52.130;5.430;2023-03-23T02:51:44;100149.75;;;11.64;100.00
71774;BME280;59607;52.130;5.430;2023-03-23T02:54:15;100146.75;;;11.67;100.00
71774;BME280;59607;52.130;5.430;2023-03-23T02:56:42;100144.13;;;11.67;100.00
71774;BME280;59607;52.130;5.430;2023-03-23T02:59:08;100152.47;;;11.70;100.00
71774;BME280;59607;52.130;5.430;2023-03-23T03:04:24;100145.22;;;11.72;100.00
71774;BME280;59607;52.130;5.430;2023-03-23T03:07:28;100140.56;;;11.75;100.00
71774;BME280;59607;52.130;5.430;2023-03-23T03:22:17;100151.97;;;11.82;100.00
71774;BME280;59607;52.130;5.430;2023-03-23T03:24:50;100147.34;;;11.84;100.00
71774;BME280;59607;52.130;5.430;2023-03-23T03:27:18;100136.66;;;11.85;100.00
71774;BME280;59607;52.130;5.430;2023-03-23T03:29:53;100122.31;;;11.88;100.00
71774;BME280;59607;52.130;5.430;2023-03-23T03:32:23;100129.19;;;11.89;100.00
71774;BME280;59607;52.130;5.430;2023-03-23T03:34:55;100131.81;;;11.89;100.00
71774;BME280;59607;52.130;5.430;2023-03-23T03:37:21;100121.91;;;11.91;100.00
71774;BME280;59607;52.130;5.430;2023-03-23T03:39:48;100130.81;;;11.90;100.00
71774;BME280;59607;52.130;5.430;2023-03-23T03:42:14;100120.31;;;11.90;100.00
71774;BME280;59607;52.130;5.430;2023-03-23T03:44:40;100120.31;;;11.90;100.00
71774;BME280;59607;52.130;5.430;2023-03-23T03:47:06;100120.31;;;11.90;100.00
71774;BME280;59607;52.130;5.430;2023-03-23T03:49:35;100115.66;;;11.92;100.00
71774;BME280;59607;52.130;5.430;2023-03-23T03:52:01;100107.97;;;11.91;100.00
71774;BME280;59607;52.130;5.430;2023-03-23T03:54:26;100126.34;;;11.91;100.00
71774;BME280;59607;52.130;5.430;2023-03-23T03:56:52;100128.00;;;11.92;100.00
71774;BME280;59607;52.130;5.430;2023-03-23T03:59:25;100123.34;;;11.94;100.00
71774;BME280;59607;52.130;5.430;2023-03-23T04:01:55;100125.97;;;11.94;100.00
71774;BME280;59607;52.130;5.430;2023-03-23T04:04:21;100127.63;;;11.95;100.00
71774;BME280;59607;52.130;5.430;2023-03-23T04:06:48;100119.53;;;11.96;100.00
71774;BME280;59607;52.130;5.430;2023-03-23T04:09:14;100110.84;;;11.96;100.00
71774;BME280;59607;52.130;5.430;2023-03-23T04:11:39;100122.81;;;11.99;100.00
71774;BME280;59607;52.130;5.430;2023-03-23T04:14:06;100115.72;;;11.99;100.00
71774;BME280;59607;52.130;5.430;2023-03-23T04:16:34;100123.59;;;11.99;100.00
71774;BME280;59607;52.130;5.430;2023-03-23T04:19:00;100119.34;;;11.98;100.00
71774;BME280;59607;52.130;5.430;2023-03-23T04:21:25;100112.09;;;12.00;100.00
71774;BME280;59607;52.130;5.430;2023-03-23T04:23:55;100127.69;;;12.02;100.00
71774;BME280;59607;52.130;5.430;2023-03-23T04:26:25;100126.03;;;12.01;100.00
71774;BME280;59607;52.130;5.430;2023-03-23T04:28:51;100123.22;;;12.02;100.00
71774;BME280;59607;52.130;5.430;2023-03-23T04:31:17;100124.66;;;12.05;100.00
71774;BME280;59607;52.130;5.430;2023-03-23T04:33:43;100116.59;;;12.06;100.00
71774;BME280;59607;52.130;5.430;2023-03-23T04:36:11;100130.53;;;12.07;100.00
71774;BME280;59607;52.130;5.430;2023-03-23T04:38:36;100133.16;;;12.07;100.00
71774;BME280;59607;52.130;5.430;2023-03-23T04:41:02;100144.69;;;12.06;100.00
71774;BME280;59607;52.130;5.430;2023-03-23T04:43:28;100143.66;;;12.07;100.00
71774;BME280;59607;52.130;5.430;2023-03-23T04:45:58;100146.13;;;12.08;100.00
71774;BME280;59607;52.130;5.430;2023-03-23T04:48:27;100136.59;;;12.07;100.00
71774;BME280;59607;52.130;5.430;2023-03-23T04:50:53;100165.53;;;12.07;100.00
71774;BME280;59607;52.130;5.430;2023-03-23T04:53:19;100157.19;;;12.04;100.00
71774;BME280;59607;52.130;5.430;2023-03-23T04:55:45;100178.41;;;12.02;100.00
71774;BME280;59607;52.130;5.430;2023-03-23T04:58:11;100153.78;;;12.03;100.00
71774;BME280;59607;52.130;5.430;2023-03-23T05:00:43;100152.56;;;12.06;100.00
71774;BME280;59607;52.130;5.430;2023-03-23T05:03:15;100159.03;;;12.03;100.00
71774;BME280;59607;52.130;5.430;2023-03-23T05:05:46;100164.47;;;12.02;100.00
71774;BME280;59607;52.130;5.430;2023-03-23T05:08:27;100165.84;;;11.97;100.00
71774;BME280;59607;52.130;5.430;2023-03-23T05:11:00;100169.28;;;11.98;100.00
71774;BME280;59607;52.130;5.430;2023-03-23T05:13:31;100170.66;;;11.94;100.00
71774;BME280;59607;52.130;5.430;2023-03-23T05:15:56;100170.66;;;11.94;100.00
71774;BME280;59607;52.130;5.430;2023-03-23T05:18:22;100178.97;;;11.97;100.00
71774;BME280;59607;52.130;5.430;2023-03-23T05:20:53;100177.38;;;11.96;100.00
71774;BME280;59607;52.130;5.430;2023-03-23T05:23:19;100176.91;;;11.93;100.00
71774;BME280;59607;52.130;5.430;2023-03-23T05:25:54;100172.88;;;11.90;100.00
71774;BME280;59607;52.130;5.430;2023-03-23T05:28:26;100157.22;;;11.82;100.00
71774;BME280;59607;52.130;5.430;2023-03-23T05:30:55;100164.47;;;11.80;100.00
71774;BME280;59607;52.130;5.430;2023-03-23T05:33:21;100171.91;;;11.76;100.00
71774;BME280;59607;52.130;5.430;2023-03-23T05:35:47;100176.56;;;11.74;100.00
71774;BME280;59607;52.130;5.430;2023-03-23T05:38:15;100188.88;;;11.73;100.00
71774;BME280;59607;52.130;5.430;2023-03-23T05:40:41;100177.91;;;11.70;100.00
71774;BME280;59607;52.130;5.430;2023-03-23T05:43:10;100192.88;;;11.69;100.00
71774;BME280;59607;52.130;5.430;2023-03-23T05:45:36;100195.84;;;11.66;100.00
71774;BME280;59607;52.130;5.430;2023-03-23T05:48:02;100193.59;;;11.63;100.00
71774;BME280;59607;52.130;5.430;2023-03-23T05:50:31;100192.72;;;11.56;100.00
71774;BME280;59607;52.130;5.430;2023-03-23T05:52:56;100197.44;;;11.45;100.00
71774;BME280;59607;52.130;5.430;2023-03-23T05:55:22;100208.03;;;11.37;100.00
71774;BME280;59607;52.130;5.430;2023-03-23T05:57:47;100196.66;;;11.30;100.00
71774;BME280;59607;52.130;5.430;2023-03-23T06:00:16;100213.44;;;11.29;100.00
71774;BME280;59607;52.130;5.430;2023-03-23T06:02:48;100213.78;;;11.26;100.00
71774;BME280;59607;52.130;5.430;2023-03-23T06:05:15;100220.84;;;11.25;100.00
71774;BME280;59607;52.130;5.430;2023-03-23T06:07:44;100237.94;;;11.21;100.00
71774;BME280;59607;52.130;5.430;2023-03-23T06:10:10;100231.44;;;11.17;100.00
71774;BME280;59607;52.130;5.430;2023-03-23T06:12:38;100212.59;;;11.13;100.00
71774;BME280;59607;52.130;5.430;2023-03-23T06:15:04;100229.53;;;11.10;100.00
71774;BME280;59607;52.130;5.430;2023-03-23T06:17:32;100236.13;;;11.06;100.00
71774;BME280;59607;52.130;5.430;2023-03-23T06:20:06;100228.19;;;11.00;100.00
71774;BME280;59607;52.130;5.430;2023-03-23T06:22:35;100236.75;;;10.93;100.00
71774;BME280;59607;52.130;5.430;2023-03-23T06:25:04;100251.72;;;10.93;100.00
71774;BME280;59607;52.130;5.430;2023-03-23T06:27:33;100247.63;;;10.90;100.00
71774;BME280;59607;52.130;5.430;2023-03-23T06:29:58;100252.88;;;10.90;100.00
71774;BME280;59607;52.130;5.430;2023-03-23T06:32:27;100256.66;;;10.88;100.00
71774;BME280;59607;52.130;5.430;2023-03-23T06:34:56;100258.47;;;10.87;100.00
71774;BME280;59607;52.130;5.430;2023-03-23T06:37:22;100246.19;;;10.88;100.00
71774;BME280;59607;52.130;5.430;2023-03-23T06:39:58;100256.84;;;10.86;100.00
71774;BME280;59607;52.130;5.430;2023-03-23T06:42:23;100260.47;;;10.85;100.00
71774;BME280;59607;52.130;5.430;2023-03-23T06:45:12;100263.91;;;10.85;100.00
71774;BME280;59607;52.130;5.430;2023-03-23T06:47:38;100265.19;;;10.90;100.00
71774;BME280;59607;52.130;5.430;2023-03-23T06:50:07;100265.97;;;10.90;100.00
71774;BME280;59607;52.130;5.430;2023-03-23T06:52:46;100279.38;;;10.95;100.00
71774;BME280;59607;52.130;5.430;2023-03-23T06:55:11;100266.25;;;10.95;100.00
71774;BME280;59607;52.130;5.430;2023-03-23T06:57:38;100282.00;;;10.95;100.00
71774;BME280;59607;52.130;5.430;2023-03-23T07:00:12;100277.59;;;10.96;100.00
71774;BME280;59607;52.130;5.430;2023-03-23T07:02:55;100288.06;;;10.96;100.00
71774;BME280;59607;52.130;5.430;2023-03-23T07:05:27;100291.69;;;10.95;100.00
71774;BME280;59607;52.130;5.430;2023-03-23T07:07:53;100292.69;;;10.94;100.00
71774;BME280;59607;52.130;5.430;2023-03-23T07:10:18;100284.81;;;10.94;100.00
71774;BME280;59607;52.130;5.430;2023-03-23T07:12:56;100282.84;;;10.96;100.00
71774;BME280;59607;52.130;5.430;2023-03-23T07:15:21;100272.16;;;10.97;100.00
71774;BME280;59607;52.130;5.430;2023-03-23T07:17:48;100272.16;;;10.97;100.00
71774;BME280;59607;52.130;5.430;2023-03-23T07:20:14;100275.78;;;10.96;100.00
71774;BME280;59607;52.130;5.430;2023-03-23T07:22:41;100288.06;;;10.96;100.00
71774;BME280;59607;52.130;5.430;2023-03-23T07:25:06;100293.16;;;10.97;100.00
71774;BME280;59607;52.130;5.430;2023-03-23T07:27:32;100290.34;;;10.99;100.00
71774;BME280;59607;52.130;5.430;2023-03-23T07:30:02;100290.16;;;11.01;100.00
71774;BME280;59607;52.130;5.430;2023-03-23T07:32:32;100286.19;;;11.05;100.00
71774;BME280;59607;52.130;5.430;2023-03-23T07:35:04;100296.59;;;11.13;100.00
71774;BME280;59607;52.130;5.430;2023-03-23T07:37:29;100304.38;;;11.21;100.00
71774;BME280;59607;52.130;5.430;2023-03-23T07:39:55;100288.19;;;11.33;100.00
71774;BME280;59607;52.130;5.430;2023-03-23T07:42:22;100302.06;;;11.42;100.00
71774;BME280;59607;52.130;5.430;2023-03-23T07:44:50;100301.22;;;11.41;100.00
71774;BME280;59607;52.130;5.430;2023-03-23T07:47:15;100316.34;;;11.39;100.00
71774;BME280;59607;52.130;5.430;2023-03-23T07:49:43;100315.19;;;11.42;100.00
71774;BME280;59607;52.130;5.430;2023-03-23T07:52:08;100317.69;;;11.50;100.00
71774;BME280;59607;52.130;5.430;2023-03-23T07:54:34;100308.09;;;11.57;100.00
71774;BME280;59607;52.130;5.430;2023-03-23T07:57:03;100317.06;;;11.63;100.00
71774;BME280;59607;52.130;5.430;2023-03-23T07:59:28;100313.34;;;11.57;100.00
71774;BME280;59607;52.130;5.430;2023-03-23T08:01:53;100313.25;;;11.51;100.00
71774;BME280;59607;52.130;5.430;2023-03-23T08:04:20;100301.56;;;11.53;100.00
71774;BME280;59607;52.130;5.430;2023-03-23T08:06:45;100317.41;;;11.60;100.00
71774;BME280;59607;52.130;5.430;2023-03-23T08:09:12;100322.31;;;11.63;100.00
71774;BME280;59607;52.130;5.430;2023-03-23T08:11:41;100307.28;;;11.57;100.00
71774;BME280;59607;52.130;5.430;2023-03-23T08:14:12;100321.25;;;11.57;100.00
71774;BME280;59607;52.130;5.430;2023-03-23T08:16:37;100333.28;;;11.67;100.00
71774;BME280;59607;52.130;5.430;2023-03-23T08:19:06;100336.72;;;11.67;100.00
71774;BME280;59607;52.130;5.430;2023-03-23T08:21:35;100330.38;;;11.62;100.00
71774;BME280;59607;52.130;5.430;2023-03-23T08:24:00;100327.13;;;11.59;100.00
71774;BME280;59607;52.130;5.430;2023-03-23T08:26:32;100334.47;;;11.64;100.00
71774;BME280;59607;52.130;5.430;2023-03-23T08:28:57;100327.91;;;11.75;100.00
71774;BME280;59607;52.130;5.430;2023-03-23T08:31:23;100323.63;;;11.89;100.00
71774;BME280;59607;52.130;5.430;2023-03-23T08:33:51;100329.69;;;12.05;100.00
71774;BME280;59607;52.130;5.430;2023-03-23T08:36:24;100329.06;;;12.18;100.00
71774;BME280;59607;52.130;5.430;2023-03-23T08:38:49;100335.69;;;12.36;100.00
71774;BME280;59607;52.130;5.430;2023-03-23T08:41:20;100340.47;;;12.47;100.00
71774;BME280;59607;52.130;5.430;2023-03-23T08:43:46;100338.06;;;12.52;100.00
71774;BME280;59607;52.130;5.430;2023-03-23T08:46:12;100336.13;;;12.61;100.00
71774;BME280;59607;52.130;5.430;2023-03-23T08:48:38;100329.16;;;12.75;100.00
71774;BME280;59607;52.130;5.430;2023-03-23T08:51:06;100344.28;;;12.44;100.00
71774;BME280;59607;52.130;5.430;2023-03-23T08:53:32;100335.00;;;12.27;100.00
71774;BME280;59607;52.130;5.430;2023-03-23T08:56:16;100338.75;;;12.17;100.00
71774;BME280;59607;52.130;5.430;2023-03-23T08:58:42;100348.97;;;12.27;100.00
71774;BME280;59607;52.130;5.430;2023-03-23T09:01:11;100363.53;;;12.30;100.00
71774;BME280;59607;52.130;5.430;2023-03-23T09:03:39;100359.00;;;12.61;100.00
71774;BME280;59607;52.130;5.430;2023-03-23T09:06:07;100366.88;;;12.61;100.00
71774;BME280;59607;52.130;5.430;2023-03-23T09:08:34;100362.31;;;12.69;100.00
71774;BME280;59607;52.130;5.430;2023-03-23T09:11:06;100368.75;;;12.67;100.00
71774;BME280;59607;52.130;5.430;2023-03-23T09:13:33;100372.47;;;12.73;100.00
71774;BME280;59607;52.130;5.430;2023-03-23T09:15:59;100359.13;;;12.74;100.00
71774;BME280;59607;52.130;5.430;2023-03-23T09:18:28;100355.78;;;12.87;100.00
71774;BME280;59607;52.130;5.430;2023-03-23T09:20:53;100362.16;;;13.00;100.00
71774;BME280;59607;52.130;5.430;2023-03-23T09:23:22;100357.38;;;13.10;100.00
71774;BME280;59607;52.130;5.430;2023-03-23T09:25:51;100357.19;;;13.12;100.00
71774;BME280;59607;52.130;5.430;2023-03-23T09:28:17;100353.53;;;13.13;98.68
71774;BME280;59607;52.130;5.430;2023-03-23T09:30:43;100375.00;;;13.10;99.58
71774;BME280;59607;52.130;5.430;2023-03-23T09:33:09;100358.19;;;13.11;100.00
71774;BME280;59607;52.130;5.430;2023-03-23T09:35:35;100369.78;;;13.16;98.83
71774;BME280;59607;52.130;5.430;2023-03-23T09:38:03;100374.81;;;13.11;98.99
71774;BME280;59607;52.130;5.430;2023-03-23T09:43:44;100376.78;;;13.31;100.00
71774;BME280;59607;52.130;5.430;2023-03-23T09:46:56;100376.25;;;13.42;98.66
71774;BME280;59607;52.130;5.430;2023-03-23T09:50:08;100388.81;;;13.47;94.23
71774;BME280;59607;52.130;5.430;2023-03-23T09:55:31;100381.25;;;13.66;93.15
71774;BME280;59607;52.130;5.430;2023-03-23T09:58:31;100385.25;;;13.55;88.78
71774;BME280;59607;52.130;5.430;2023-03-23T10:03:39;100398.91;;;13.65;92.13
71774;BME280;59607;52.130;5.430;2023-03-23T10:06:13;100395.50;;;13.72;93.13
71774;BME280;59607;52.130;5.430;2023-03-23T10:08:46;100405.16;;;13.64;86.87
71774;BME280;59607;52.130;5.430;2023-03-23T10:11:43;100399.19;;;13.84;89.32
71774;BME280;59607;52.130;5.430;2023-03-23T10:17:28;100410.59;;;13.91;87.54
71774;BME280;59607;52.130;5.430;2023-03-23T10:28:56;100418.28;;;13.51;87.81
71774;BME280;59607;52.130;5.430;2023-03-23T10:31:28;100414.13;;;13.70;85.80
71774;BME280;59607;52.130;5.430;2023-03-23T10:33:59;100428.81;;;13.86;85.90
71774;BME280;59607;52.130;5.430;2023-03-23T10:36:38;100422.47;;;13.74;83.54
71774;BME280;59607;52.130;5.430;2023-03-23T10:39:20;100424.59;;;13.56;84.15
71774;BME280;59607;52.130;5.430;2023-03-23T10:41:48;100431.75;;;13.41;84.28
71774;BME280;59607;52.130;5.430;2023-03-23T10:44:18;100414.53;;;13.45;82.25
71774;BME280;59607;52.130;5.430;2023-03-23T10:47:11;100421.97;;;13.35;81.99
71774;BME280;59607;52.130;5.430;2023-03-23T10:49:43;100427.00;;;13.29;82.67
71774;BME280;59607;52.130;5.430;2023-03-23T10:52:33;100430.78;;;13.20;81.20
71774;BME280;59607;52.130;5.430;2023-03-23T10:55:20;100417.63;;;13.20;82.24
71774;BME280;59607;52.130;5.430;2023-03-23T10:58:05;100419.69;;;13.25;82.39
71774;BME280;59607;52.130;5.430;2023-03-23T11:00:32;100420.06;;;13.50;81.01
71774;BME280;59607;52.130;5.430;2023-03-23T11:08:24;100432.47;;;14.34;77.23
71774;BME280;59607;52.130;5.430;2023-03-23T11:14:16;100445.94;;;14.60;73.64
71774;BME280;59607;52.130;5.430;2023-03-23T11:16:58;100433.31;;;14.41;72.05
71774;BME280;59607;52.130;5.430;2023-03-23T11:19:34;100430.50;;;14.50;74.81
71774;BME280;59607;52.130;5.430;2023-03-23T11:24:45;100420.22;;;15.02;69.85
71774;BME280;59607;52.130;5.430;2023-03-23T11:27:13;100415.38;;;15.13;67.99
71774;BME280;59607;52.130;5.430;2023-03-23T11:32:49;100419.59;;;15.54;64.98
71774;BME280;59607;52.130;5.430;2023-03-23T11:35:26;100423.06;;;15.55;65.49
71774;BME280;59607;52.130;5.430;2023-03-23T11:37:56;100415.06;;;15.69;66.12
71774;BME280;59607;52.130;5.430;2023-03-23T11:40:29;100422.59;;;15.72;67.93
71774;BME280;59607;52.130;5.430;2023-03-23T11:43:09;100418.53;;;15.62;66.37
71774;BME280;59607;52.130;5.430;2023-03-23T11:45:39;100409.66;;;15.36;67.43
71774;BME280;59607;52.130;5.430;2023-03-23T11:48:27;100411.28;;;15.44;67.97
71774;BME280;59607;52.130;5.430;2023-03-23T11:51:12;100413.69;;;15.59;67.50
71774;BME280;59607;52.130;5.430;2023-03-23T11:53:56;100419.59;;;15.54;67.39
71774;BME280;59607;52.130;5.430;2023-03-23T11:58:57;100431.41;;;14.91;70.22
71774;BME280;59607;52.130;5.430;2023-03-23T12:13:48;100449.31;;;14.33;89.65
71774;BME280;59607;52.130;5.430;2023-03-23T12:19:46;100437.94;;;15.02;85.00
71774;BME280;59607;52.130;5.430;2023-03-23T12:25:39;100430.00;;;14.95;83.65
71774;BME280;59607;52.130;5.430;2023-03-23T12:28:59;100425.88;;;14.79;84.58
71774;BME280;59607;52.130;5.430;2023-03-23T12:31:49;100425.06;;;14.78;83.50
71774;BME280;59607;52.130;5.430;2023-03-23T12:34:28;100418.56;;;14.67;85.93
71774;BME280;59607;52.130;5.430;2023-03-23T12:39:50;100428.25;;;14.47;85.41
71774;BME280;59607;52.130;5.430;2023-03-23T12:42:33;100426.78;;;14.37;84.67
71774;BME280;59607;52.130;5.430;2023-03-23T12:48:10;100422.28;;;14.24;84.55
71774;BME280;59607;52.130;5.430;2023-03-23T12:51:09;100405.91;;;14.42;83.03
71774;BME280;59607;52.130;5.430;2023-03-23T12:54:11;100404.53;;;14.67;79.53
71774;BME280;59607;52.130;5.430;2023-03-23T12:57:16;100403.72;;;14.66;80.27
71774;BME280;59607;52.130;5.430;2023-03-23T13:02:36;100380.69;;;15.69;76.47
71774;BME280;59607;52.130;5.430;2023-03-23T13:05:27;100384.31;;;15.88;72.21
71774;BME280;59607;52.130;5.430;2023-03-23T13:08:19;100381.94;;;15.73;72.94
71774;BME280;59607;52.130;5.430;2023-03-23T13:10:51;100382.59;;;15.54;69.47
71774;BME280;59607;52.130;5.430;2023-03-23T13:16:28;100392.75;;;15.51;69.12
71774;BME280;59607;52.130;5.430;2023-03-23T13:19:19;100409.22;;;15.39;70.02
71774;BME280;59607;52.130;5.430;2023-03-23T13:22:15;100401.09;;;15.54;70.45
71774;BME280;59607;52.130;5.430;2023-03-23T13:24:52;100399.25;;;15.55;70.33
71774;BME280;59607;52.130;5.430;2023-03-23T13:27:24;100406.75;;;15.65;68.91
71774;BME280;59607;52.130;5.430;2023-03-23T13:30:19;100400.75;;;15.97;68.98
71774;BME280;59607;52.130;5.430;2023-03-23T13:33:11;100394.38;;;16.18;66.90
71774;BME280;59607;52.130;5.430;2023-03-23T13:35:40;100403.75;;;16.14;66.19
71774;BME280;59607;52.130;5.430;2023-03-23T13:38:19;100388.50;;;16.09;66.06
71774;BME280;59607;52.130;5.430;2023-03-23T13:40:46;100404.53;;;16.28;66.97
71774;BME280;59607;52.130;5.430;2023-03-23T13:43:29;100402.72;;;16.22;67.34
71774;BME280;59607;52.130;5.430;2023-03-23T13:45:55;100406.88;;;16.04;68.00
71774;BME280;59607;52.130;5.430;2023-03-23T13:48:43;100425.31;;;16.18;68.34
71774;BME280;59607;52.130;5.430;2023-03-23T13:54:19;100413.44;;;15.81;69.24
71774;BME280;59607;52.130;5.430;2023-03-23T13:57:02;100422.00;;;15.70;69.50
71774;BME280;59607;52.130;5.430;2023-03-23T13:59:45;100426.25;;;15.77;70.55
71774;BME280;59607;52.130;5.430;2023-03-23T14:02:40;100403.50;;;15.70;69.46
71774;BME280;59607;52.130;5.430;2023-03-23T14:05:49;100405.38;;;15.49;71.79
71774;BME280;59607;52.130;5.430;2023-03-23T14:10:57;100408.25;;;14.93;74.99
71774;BME280;59607;52.130;5.430;2023-03-23T14:13:33;100416.72;;;14.61;77.28
71774;BME280;59607;52.130;5.430;2023-03-23T14:16:32;100423.16;;;14.38;80.48
71774;BME280;59607;52.130;5.430;2023-03-23T14:19:04;100436.03;;;14.13;83.37
71774;BME280;59607;52.130;5.430;2023-03-23T14:21:41;100431.69;;;13.91;89.66
71774;BME280;59607;52.130;5.430;2023-03-23T14:24:19;100441.75;;;13.81;92.03
71774;BME280;59607;52.130;5.430;2023-03-23T14:26:45;100438.72;;;13.84;95.23
71774;BME280;59607;52.130;5.430;2023-03-23T14:29:13;100448.44;;;14.19;97.61
71774;BME280;59607;52.130;5.430;2023-03-23T14:31:41;100443.41;;;14.31;95.63
71774;BME280;59607;52.130;5.430;2023-03-23T14:34:23;100430.19;;;14.17;94.99
71774;BME280;59607;52.130;5.430;2023-03-23T14:36:50;100417.56;;;14.13;96.69
71774;BME280;59607;52.130;5.430;2023-03-23T14:39:43;100415.97;;;14.18;96.91
71774;BME280;59607;52.130;5.430;2023-03-23T14:42:12;100407.13;;;14.40;96.14
71774;BME280;59607;52.130;5.430;2023-03-23T14:44:49;100378.34;;;14.65;94.95
71774;BME280;59607;52.130;5.430;2023-03-23T14:47:27;100360.31;;;14.83;88.57
71774;BME280;59607;52.130;5.430;2023-03-23T14:49:57;100355.00;;;14.83;85.88
71774;BME280;59607;52.130;5.430;2023-03-23T14:52:29;100361.34;;;14.88;87.76
71774;BME280;59607;52.130;5.430;2023-03-23T14:55:11;100358.69;;;14.88;83.86
71774;BME280;59607;52.130;5.430;2023-03-23T14:57:40;100354.22;;;14.89;81.92